createdAt,value
2023-04-06T00:02:02.441Z,6.80
2023-04-06T00:04:30.154Z,7.73
2023-04-06T00:06:57.892Z,5.70
2023-04-06T00:09:25.884Z,7.00
2023-04-06T00:11:53.589Z,7.03
2023-04-06T00:14:21.388Z,6.73
2023-04-06T00:16:49.081Z,6.83
2023-04-06T00:19:18.013Z,7.13
2023-04-06T00:21:46.666Z,6.30
2023-04-06T00:24:14.365Z,6.90
2023-04-06T00:26:42.083Z,6.53
2023-04-06T00:29:09.918Z,6.70
2023-04-06T00:31:37.741Z,6.30
2023-04-06T00:34:05.754Z,7.00
2023-04-06T00:36:34.717Z,6.17
2023-04-06T00:39:02.311Z,7.23
2023-04-06T00:41:29.962Z,6.13
2023-04-06T00:44:01.959Z,7.50
2023-04-06T00:46:30.504Z,6.43
2023-04-06T00:48:59.150Z,6.53
2023-04-06T00:51:27.649Z,6.50
2023-04-06T00:53:56.618Z,6.97
2023-04-06T00:56:27.156Z,6.07
2023-04-06T00:58:55.990Z,5.90
2023-04-06T01:01:23.736Z,6.60
2023-04-06T01:03:54.043Z,5.77
2023-04-06T01:06:22.513Z,6.43
2023-04-06T01:09:00.041Z,5.93
2023-04-06T01:11:28.528Z,6.50
2023-04-06T01:13:56.834Z,5.50
2023-04-06T01:16:31.409Z,6.33
2023-04-06T01:19:11.515Z,6.30
2023-04-06T01:21:43.230Z,6.77
2023-04-06T01:24:43.180Z,7.33
2023-04-06T01:27:36.968Z,8.07
2023-04-06T01:30:13.853Z,6.67
2023-04-06T01:32:50.010Z,6.90
2023-04-06T01:35:24.314Z,7.10
2023-04-06T01:38:00.678Z,7.57
2023-04-06T01:40:34.419Z,7.63
2023-04-06T01:43:02.130Z,7.20
2023-04-06T01:45:36.090Z,7.60
2023-04-06T01:48:14.012Z,6.87
2023-04-06T01:50:41.634Z,7.40
2023-04-06T01:53:12.058Z,6.47
2023-04-06T01:55:43.188Z,6.57
2023-04-06T01:58:31.367Z,6.80
2023-04-06T02:00:59.986Z,6.37
2023-04-06T02:03:32.477Z,6.73
2023-04-06T02:06:07.328Z,6.80
2023-04-06T02:08:39.819Z,6.40
2023-04-06T02:11:09.456Z,6.47
2023-04-06T02:13:47.847Z,5.50
2023-04-06T02:16:16.904Z,6.23
2023-04-06T02:18:46.800Z,6.00
2023-04-06T02:21:14.875Z,5.90
2023-04-06T02:23:42.500Z,6.47
2023-04-06T02:26:11.435Z,6.70
2023-04-06T02:28:39.101Z,6.97
2023-04-06T02:31:07.541Z,6.40
2023-04-06T02:33:35.954Z,6.40
2023-04-06T02:36:04.132Z,6.10
2023-04-06T02:38:32.180Z,6.63
2023-04-06T02:41:02.285Z,5.67
2023-04-06T02:43:32.212Z,5.83
2023-04-06T02:46:06.600Z,6.10
2023-04-06T02:48:38.701Z,7.87
2023-04-06T02:51:07.094Z,5.93
2023-04-06T02:53:35.439Z,5.80
2023-04-06T02:56:03.374Z,6.40
2023-04-06T02:58:43.515Z,6.40
2023-04-06T03:01:11.356Z,5.83
2023-04-06T03:03:40.777Z,5.43
2023-04-06T03:06:14.205Z,5.80
2023-04-06T03:08:41.886Z,5.80
2023-04-06T03:11:09.615Z,6.63
2023-04-06T03:13:44.181Z,6.30
2023-04-06T03:16:12.371Z,8.43
2023-04-06T03:18:40.414Z,6.40
2023-04-06T03:21:08.095Z,6.00
2023-04-06T03:23:45.476Z,6.70
2023-04-06T03:26:16.101Z,6.20
2023-04-06T03:28:45.251Z,6.80
2023-04-06T03:31:13.039Z,5.83
2023-04-06T03:33:53.370Z,5.80
2023-04-06T03:36:26.348Z,5.50
2023-04-06T03:38:55.916Z,6.80
2023-04-06T03:41:23.724Z,6.70
2023-04-06T03:43:59.826Z,6.60
2023-04-06T03:46:27.789Z,6.57
2023-04-06T03:48:58.387Z,7.20
2023-04-06T03:51:26.170Z,6.27
2023-04-06T03:53:53.775Z,6.17
2023-04-06T03:56:21.740Z,6.87
2023-04-06T03:58:51.560Z,7.10
2023-04-06T04:01:23.244Z,6.93
2023-04-06T04:03:51.919Z,7.43
2023-04-06T04:06:19.762Z,6.37
2023-04-06T04:08:49.513Z,6.47
2023-04-06T04:11:17.580Z,6.63
2023-04-06T04:13:48.698Z,6.40
2023-04-06T04:16:16.881Z,6.50
2023-04-06T04:18:48.073Z,7.00
2023-04-06T04:21:15.879Z,7.87
2023-04-06T04:23:43.475Z,6.03
2023-04-06T04:26:11.265Z,6.53
2023-04-06T04:28:39.366Z,7.20
2023-04-06T04:31:07.284Z,6.87
2023-04-06T04:33:36.652Z,5.87
2023-04-06T04:36:11.949Z,7.03
2023-04-06T04:38:43.289Z,5.50
2023-04-06T04:41:12.272Z,6.33
2023-04-06T04:43:43.241Z,6.57
2023-04-06T04:46:12.982Z,7.10
2023-04-06T04:48:45.126Z,7.87
2023-04-06T04:51:14.181Z,6.30
2023-04-06T04:54:02.040Z,7.07
2023-04-06T04:56:32.238Z,7.40
2023-04-06T04:59:10.688Z,7.40
2023-04-06T05:01:54.245Z,7.67
2023-04-06T05:04:27.857Z,7.10
2023-04-06T05:07:10.942Z,7.97
2023-04-06T05:09:41.606Z,7.50
2023-04-06T05:12:09.484Z,8.10
2023-04-06T05:14:46.493Z,8.50
2023-04-06T05:17:17.694Z,8.60
2023-04-06T05:19:45.489Z,8.23
2023-04-06T05:22:18.726Z,7.37
2023-04-06T05:24:51.339Z,7.70
2023-04-06T05:27:19.138Z,9.50
2023-04-06T05:29:47.116Z,8.83
2023-04-06T05:32:15.049Z,7.67
2023-04-06T05:34:43.078Z,8.90
2023-04-06T05:37:10.745Z,8.40
2023-04-06T05:39:39.701Z,9.10
2023-04-06T05:42:08.194Z,9.20
2023-04-06T05:44:57.799Z,8.93
2023-04-06T05:47:25.761Z,9.03
2023-04-06T05:50:02.054Z,8.83
2023-04-06T05:52:36.122Z,9.00
2023-04-06T05:55:06.442Z,7.77
2023-04-06T05:57:34.443Z,8.70
2023-04-06T06:00:05.383Z,8.87
2023-04-06T06:02:49.406Z,9.17
2023-04-06T06:05:21.154Z,10.10
2023-04-06T06:07:49.993Z,10.63
2023-04-06T06:10:19.238Z,10.90
2023-04-06T06:12:47.097Z,9.60
2023-04-06T06:15:14.893Z,9.93
2023-04-06T06:17:46.581Z,10.10
2023-04-06T06:20:21.280Z,10.77
2023-04-06T06:22:50.753Z,9.40
2023-04-06T06:25:24.086Z,11.10
2023-04-06T06:27:52.738Z,9.27
2023-04-06T06:30:23.284Z,9.70
2023-04-06T06:32:52.582Z,9.33
2023-04-06T06:35:21.280Z,9.70
2023-04-06T06:37:55.163Z,9.70
2023-04-06T06:40:28.104Z,9.57
2023-04-06T06:42:57.107Z,9.10
2023-04-06T06:45:56.759Z,10.90
2023-04-06T06:48:24.534Z,10.63
2023-04-06T06:50:52.524Z,9.20
2023-04-06T06:53:20.362Z,10.13
2023-04-06T06:55:49.834Z,11.47
2023-04-06T06:58:19.646Z,8.73
2023-04-06T07:00:47.513Z,10.60
2023-04-06T07:03:15.401Z,9.50
2023-04-06T07:05:50.108Z,10.70
2023-04-06T07:08:18.498Z,9.37
2023-04-06T07:10:46.361Z,8.83
2023-04-06T07:13:21.669Z,8.30
2023-04-06T07:15:50.019Z,7.50
2023-04-06T07:18:18.121Z,7.90
2023-04-06T07:20:46.892Z,7.77
2023-04-06T07:23:16.015Z,7.70
2023-04-06T07:25:43.713Z,7.97
2023-04-06T07:28:11.834Z,8.07
2023-04-06T07:30:41.833Z,6.60
2023-04-06T07:33:11.311Z,7.40
2023-04-06T07:35:39.124Z,7.30
2023-04-06T07:38:07.652Z,7.00
2023-04-06T07:40:36.821Z,7.03
2023-04-06T07:43:04.820Z,7.40
2023-04-06T07:45:32.998Z,6.90
2023-04-06T07:48:03.663Z,6.93
2023-04-06T07:50:32.650Z,7.10
2023-04-06T07:53:01.445Z,6.97
2023-04-06T07:55:29.889Z,6.17
2023-04-06T07:57:57.584Z,7.30
2023-04-06T08:00:25.672Z,6.20
2023-04-06T08:02:53.439Z,6.60
2023-04-06T08:05:22.752Z,6.50
2023-04-06T08:07:50.466Z,6.40
2023-04-06T08:10:18.138Z,6.83
2023-04-06T08:12:45.794Z,6.63
2023-04-06T08:15:13.459Z,5.60
2023-04-06T08:17:41.309Z,5.80
2023-04-06T08:20:09.560Z,5.57
2023-04-06T08:22:38.945Z,5.80
2023-04-06T08:25:07.404Z,6.03
2023-04-06T08:27:35.245Z,5.50
2023-04-06T08:30:03.190Z,4.57
2023-04-06T08:32:30.922Z,5.00
2023-04-06T08:34:59.161Z,4.40
2023-04-06T08:37:27.374Z,4.27
2023-04-06T08:39:56.545Z,4.27
2023-04-06T08:42:27.687Z,4.90
2023-04-06T08:44:55.863Z,5.33
2023-04-06T08:47:24.967Z,5.03
2023-04-06T08:49:55.451Z,5.47
2023-04-06T08:52:23.359Z,4.40
2023-04-06T08:54:51.007Z,5.47
2023-04-06T08:57:20.913Z,5.73
2023-04-06T08:59:48.546Z,6.10
2023-04-06T09:02:19.826Z,6.10
2023-04-06T09:04:48.177Z,4.97
2023-04-06T09:07:16.261Z,5.10
2023-04-06T09:09:48.731Z,5.00
2023-04-06T09:12:26.637Z,5.30
2023-04-06T09:14:54.659Z,3.83
2023-04-06T09:17:23.141Z,4.93
2023-04-06T09:19:51.425Z,4.70
2023-04-06T09:22:19.653Z,4.70
2023-04-06T09:24:48.508Z,4.70
2023-04-06T09:27:16.728Z,4.60
2023-04-06T09:29:46.701Z,3.80
2023-04-06T09:32:17.806Z,4.03
2023-04-06T09:34:50.868Z,3.93
2023-04-06T09:37:19.899Z,4.20
2023-04-06T09:39:48.090Z,3.90
2023-04-06T09:42:25.706Z,4.40
2023-04-06T09:44:54.810Z,4.27
2023-04-06T09:47:24.793Z,4.73
2023-04-06T09:49:58.124Z,4.43
2023-04-06T09:52:29.201Z,4.37
2023-04-06T09:54:58.151Z,4.60
2023-04-06T09:57:27.670Z,5.07
2023-04-06T10:00:00.311Z,4.53
2023-04-06T10:02:34.536Z,4.30
2023-04-06T10:05:06.487Z,5.60
2023-04-06T10:07:37.098Z,4.37
2023-04-06T10:10:07.320Z,4.40
2023-04-06T10:12:35.488Z,4.20
2023-04-06T10:15:04.801Z,4.20
2023-04-06T10:17:32.808Z,4.13
2023-04-06T10:20:05.676Z,3.63
2023-04-06T10:22:41.349Z,4.03
2023-04-06T10:25:10.488Z,4.23
2023-04-06T10:27:38.318Z,3.53
2023-04-06T10:30:09.293Z,4.10
2023-04-06T10:32:38.142Z,3.63
2023-04-06T10:35:10.269Z,4.20
2023-04-06T10:37:54.745Z,4.80
2023-04-06T10:40:27.092Z,4.50
2023-04-06T10:42:55.683Z,5.00
2023-04-06T10:45:26.988Z,5.50
2023-04-06T10:47:55.265Z,5.00
2023-04-06T10:50:23.921Z,5.40
2023-04-06T10:53:01.158Z,5.47
2023-04-06T10:55:30.269Z,5.13
2023-04-06T10:57:58.591Z,5.13
2023-04-06T11:00:39.283Z,6.97
2023-04-06T11:03:11.394Z,6.03
2023-04-06T11:05:39.367Z,6.33
2023-04-06T11:08:07.542Z,5.83
2023-04-06T11:10:35.448Z,5.30
2023-04-06T11:13:03.507Z,6.30
2023-04-06T11:15:39.383Z,6.00
2023-04-06T11:18:07.587Z,6.40
2023-04-06T11:20:35.729Z,6.13
2023-04-06T11:23:04.754Z,6.37
2023-04-06T11:25:33.748Z,7.30
2023-04-06T11:28:01.667Z,7.83
2023-04-06T11:30:29.722Z,6.40
2023-04-06T11:33:02.834Z,6.90
2023-04-06T11:35:33.676Z,6.77
2023-04-06T11:38:04.780Z,7.03
2023-04-06T11:40:34.176Z,6.97
2023-04-06T11:43:02.258Z,7.10
2023-04-06T11:45:30.098Z,7.00
2023-04-06T11:48:01.488Z,7.83
2023-04-06T11:50:34.439Z,7.80
2023-04-06T11:53:03.913Z,7.77
2023-04-06T11:55:33.252Z,7.33
2023-04-06T11:58:02.736Z,6.90
2023-04-06T12:00:35.574Z,7.33
2023-04-06T12:03:04.666Z,7.63
2023-04-06T12:05:33.056Z,7.07
2023-04-06T12:08:02.638Z,7.30
2023-04-06T12:10:31.406Z,7.37
2023-04-06T12:12:59.065Z,7.10
2023-04-06T12:15:26.826Z,7.67
2023-04-06T12:17:54.567Z,6.27
2023-04-06T12:20:27.272Z,6.83
2023-04-06T12:22:55.673Z,6.53
2023-04-06T12:25:23.465Z,6.77
2023-04-06T12:27:51.268Z,6.70
2023-04-06T12:30:19.381Z,7.40
2023-04-06T12:32:49.643Z,6.73
2023-04-06T12:35:19.015Z,7.10
2023-04-06T12:37:47.954Z,7.27
2023-04-06T12:40:15.964Z,6.80
2023-04-06T12:42:44.115Z,6.73
2023-04-06T12:45:12.753Z,7.90
2023-04-06T12:47:40.664Z,6.47
2023-04-06T12:50:09.186Z,6.60
2023-04-06T12:52:37.391Z,7.00
2023-04-06T12:55:07.790Z,7.37
2023-04-06T12:57:35.847Z,7.37
2023-04-06T13:00:04.737Z,7.23
2023-04-06T13:02:33.855Z,7.30
2023-04-06T13:05:01.609Z,7.73
2023-04-06T13:07:29.692Z,7.00
2023-04-06T13:09:57.385Z,6.87
2023-04-06T13:12:27.218Z,7.77
2023-04-06T13:14:55.023Z,7.43
2023-04-06T13:17:23.569Z,6.67
2023-04-06T13:19:51.852Z,8.00
2023-04-06T13:22:19.570Z,7.33
2023-04-06T13:24:47.616Z,7.93
2023-04-06T13:27:15.840Z,7.90
2023-04-06T13:29:45.105Z,6.90
2023-04-06T13:32:13.261Z,7.30
2023-04-06T13:34:41.537Z,7.00
2023-04-06T13:37:09.525Z,8.00
2023-04-06T13:39:37.246Z,6.90
2023-04-06T13:42:05.107Z,6.63
2023-04-06T13:44:33.104Z,8.67
2023-04-06T13:47:02.173Z,6.77
2023-04-06T13:49:30.157Z,9.93
2023-04-06T13:51:57.946Z,7.63
2023-04-06T13:54:25.826Z,7.30
2023-04-06T13:56:53.663Z,7.80
2023-04-06T13:59:21.356Z,7.73
2023-04-06T14:01:49.797Z,7.30
2023-04-06T14:04:18.847Z,7.63
2023-04-06T14:06:47.021Z,7.77
2023-04-06T14:09:14.873Z,7.30
2023-04-06T14:11:42.579Z,7.40
2023-04-06T14:14:10.774Z,9.17
2023-04-06T14:16:38.533Z,7.57
2023-04-06T14:19:06.282Z,7.93
2023-04-06T14:21:35.300Z,8.33
2023-04-06T14:24:02.876Z,9.40
2023-04-06T14:26:30.637Z,9.37
2023-04-06T14:28:58.287Z,8.43
2023-04-06T14:31:26.065Z,8.20
2023-04-06T14:33:53.706Z,7.63
2023-04-06T14:36:21.426Z,8.27
2023-04-06T14:38:50.594Z,7.47
2023-04-06T14:41:19.006Z,8.00
2023-04-06T14:43:47.759Z,6.47
2023-04-06T14:46:16.665Z,8.67
2023-04-06T14:48:44.432Z,7.43
2023-04-06T14:51:12.245Z,7.60
2023-04-06T14:53:40.272Z,9.60
2023-04-06T14:56:09.452Z,7.70
2023-04-06T14:58:37.201Z,7.47
2023-04-06T15:01:05.018Z,7.97
2023-04-06T15:03:34.377Z,9.97
2023-04-06T15:06:02.762Z,7.43
2023-04-06T15:08:30.444Z,8.13
2023-04-06T15:11:01.178Z,8.10
2023-04-06T15:13:30.564Z,7.90
2023-04-06T15:15:59.888Z,9.20
2023-04-06T15:18:29.373Z,7.20
2023-04-06T15:20:57.025Z,6.90
2023-04-06T15:23:24.759Z,8.30
2023-04-06T15:25:52.583Z,7.40
2023-04-06T15:28:20.300Z,8.10
2023-04-06T15:30:49.297Z,8.03
2023-04-06T15:33:17.064Z,7.73
2023-04-06T15:35:44.965Z,8.37
2023-04-06T15:38:12.608Z,7.57
2023-04-06T15:40:44.983Z,7.27
2023-04-06T15:43:13.552Z,8.33
2023-04-06T15:45:41.813Z,7.97
2023-04-06T15:48:11.055Z,7.10
2023-04-06T15:50:38.863Z,7.77
2023-04-06T15:53:07.235Z,8.20
2023-04-06T15:55:34.985Z,7.83
2023-04-06T15:58:02.602Z,7.27
2023-04-06T16:00:30.634Z,7.93
2023-04-06T16:02:58.538Z,7.43
2023-04-06T16:05:34.570Z,7.10
2023-04-06T16:08:03.932Z,7.33
2023-04-06T16:10:33.087Z,8.23
2023-04-06T16:13:00.695Z,7.57
2023-04-06T16:15:28.326Z,7.73
2023-04-06T16:17:56.464Z,8.30
2023-04-06T16:20:24.313Z,7.27
2023-04-06T16:22:53.548Z,8.53
2023-04-06T16:25:21.469Z,8.03
2023-04-06T16:27:49.058Z,7.37
2023-04-06T16:30:17.266Z,8.00
2023-04-06T16:32:47.168Z,8.07
2023-04-06T16:35:14.784Z,7.60
2023-04-06T16:37:42.403Z,7.90
2023-04-06T16:40:13.075Z,8.10
2023-04-06T16:42:41.333Z,7.37
2023-04-06T16:45:09.723Z,7.27
2023-04-06T16:47:37.925Z,9.13
2023-04-06T16:50:06.514Z,7.60
2023-04-06T16:52:34.684Z,7.77
2023-04-06T16:55:02.280Z,7.40
2023-04-06T16:57:31.289Z,8.00
2023-04-06T16:59:58.995Z,7.73
2023-04-06T17:02:27.118Z,7.53
2023-04-06T17:04:54.948Z,7.23
2023-04-06T17:07:26.480Z,7.50
2023-04-06T17:09:54.296Z,6.90
2023-04-06T17:12:22.069Z,7.67
2023-04-06T17:14:51.280Z,7.60
2023-04-06T17:17:20.904Z,7.63
2023-04-06T17:19:48.493Z,7.20
2023-04-06T17:22:20.636Z,7.40
2023-04-06T17:24:49.398Z,8.30
2023-04-06T17:27:17.373Z,7.20
2023-04-06T17:29:45.024Z,6.73
2023-04-06T17:32:14.074Z,7.60
2023-04-06T17:34:41.785Z,7.77
2023-04-06T17:37:09.439Z,7.20
2023-04-06T17:39:37.241Z,7.67
2023-04-06T17:42:05.672Z,7.00
2023-04-06T17:44:34.168Z,8.10
2023-04-06T17:47:01.788Z,7.07
2023-04-06T17:49:32.672Z,7.73
2023-04-06T17:52:00.354Z,7.27
2023-04-06T17:54:28.363Z,7.87
2023-04-06T17:56:56.123Z,8.10
2023-04-06T17:59:23.773Z,7.30
2023-04-06T18:01:51.896Z,7.70
2023-04-06T18:04:19.650Z,7.70
2023-04-06T18:06:48.819Z,6.70
2023-04-06T18:09:16.917Z,7.03
2023-04-06T18:11:44.578Z,7.50
2023-04-06T18:14:13.471Z,9.00
2023-04-06T18:16:42.414Z,7.93
2023-04-06T18:19:10.739Z,8.87
2023-04-06T18:21:38.360Z,7.70
2023-04-06T18:24:09.868Z,7.43
2023-04-06T18:26:40.732Z,7.50
2023-04-06T18:29:08.428Z,7.77
2023-04-06T18:34:05.037Z,7.80
2023-04-06T18:36:33.446Z,8.97
2023-04-06T18:39:01.352Z,9.40
2023-04-06T18:41:31.060Z,8.10
2023-04-06T18:43:58.992Z,9.30
2023-04-06T18:46:27.326Z,8.47
2023-04-06T18:48:56.924Z,8.80
2023-04-06T18:51:29.775Z,8.57
2023-04-06T18:53:57.860Z,12.97
2023-04-06T18:56:26.523Z,16.43
2023-04-06T18:58:56.444Z,10.23
2023-04-06T19:01:25.868Z,8.77
2023-04-06T19:03:54.501Z,9.40
2023-04-06T19:06:23.398Z,9.93
2023-04-06T19:08:51.999Z,9.30
2023-04-06T19:11:23.191Z,9.27
2023-04-06T19:13:51.494Z,9.30
2023-04-06T19:16:21.181Z,9.93
2023-04-06T19:18:49.454Z,8.80
2023-04-06T19:21:18.064Z,9.33
2023-04-06T19:23:46.693Z,7.23
2023-04-06T19:26:15.171Z,9.37
2023-04-06T19:28:44.957Z,9.27
2023-04-06T19:31:14.843Z,8.27
2023-04-06T19:33:45.410Z,8.40
2023-04-06T19:36:13.367Z,9.63
2023-04-06T19:38:42.148Z,8.43
2023-04-06T19:41:10.829Z,8.87
2023-04-06T19:43:39.169Z,8.70
2023-04-06T19:46:09.499Z,9.23
2023-04-06T19:48:37.698Z,8.63
2023-04-06T19:51:07.147Z,10.00
2023-04-06T19:53:35.358Z,8.90
2023-04-06T19:56:03.142Z,9.10
2023-04-06T19:58:31.042Z,9.13
2023-04-06T20:00:59.455Z,8.70
2023-04-06T20:03:27.811Z,8.50
2023-04-06T20:05:56.113Z,8.93
2023-04-06T20:08:25.529Z,10.37
2023-04-06T20:10:53.368Z,9.40
2023-04-06T20:13:22.295Z,9.13
2023-04-06T20:15:50.512Z,8.60
2023-04-06T20:18:18.175Z,10.40
2023-04-06T20:20:45.897Z,8.60
2023-04-06T20:23:13.756Z,9.67
2023-04-06T20:25:42.930Z,9.37
2023-04-06T20:28:10.874Z,9.37
2023-04-06T20:30:38.626Z,10.27
2023-04-06T20:33:06.652Z,9.50
2023-04-06T20:35:35.312Z,10.90
2023-04-06T20:38:03.452Z,7.90
2023-04-06T20:40:31.374Z,10.00
2023-04-06T20:43:00.922Z,11.47
2023-04-06T20:45:29.749Z,10.70
2023-04-06T20:47:57.748Z,11.13
2023-04-06T20:50:26.183Z,10.53
2023-04-06T20:52:54.301Z,10.27
2023-04-06T20:55:22.330Z,10.60
2023-04-06T20:57:50.016Z,10.63
2023-04-06T21:00:19.810Z,10.50
2023-04-06T21:02:47.695Z,9.70
2023-04-06T21:05:16.049Z,11.37
2023-04-06T21:07:43.904Z,11.27
2023-04-06T21:10:12.725Z,9.90
2023-04-06T21:12:40.769Z,10.53
2023-04-06T21:15:09.640Z,11.70
2023-04-06T21:17:38.818Z,10.10
2023-04-06T21:20:07.815Z,9.80
2023-04-06T21:22:35.649Z,10.90
2023-04-06T21:25:03.744Z,10.90
2023-04-06T21:27:31.774Z,10.90
2023-04-06T21:29:59.800Z,11.37
2023-04-06T21:32:27.920Z,11.30
2023-04-06T21:34:57.397Z,11.57
2023-04-06T21:37:25.169Z,11.10
2023-04-06T21:39:54.733Z,10.77
2023-04-06T21:42:22.620Z,9.73
2023-04-06T21:44:50.671Z,9.77
2023-04-06T21:47:18.560Z,11.07
2023-04-06T21:49:46.624Z,10.20
2023-04-06T21:52:15.810Z,11.03
2023-04-06T21:54:43.756Z,11.00
2023-04-06T21:57:13.583Z,10.33
2023-04-06T21:59:41.969Z,10.40
2023-04-06T22:02:09.915Z,10.40
2023-04-06T22:04:39.697Z,9.93
2023-04-06T22:07:07.702Z,9.17
2023-04-06T22:09:37.239Z,11.50
2023-04-06T22:12:07.075Z,11.40
2023-04-06T22:14:35.012Z,10.60
2023-04-06T22:17:03.482Z,9.30
2023-04-06T22:19:31.663Z,11.60
2023-04-06T22:21:59.780Z,10.40
2023-04-06T22:24:27.927Z,11.53
2023-04-06T22:26:58.481Z,11.17
2023-04-06T22:29:26.521Z,11.43
2023-04-06T22:31:55.330Z,10.87
2023-04-06T22:34:23.306Z,10.03
2023-04-06T22:36:51.478Z,10.37
2023-04-06T22:39:19.434Z,10.40
2023-04-06T22:41:47.396Z,11.07
2023-04-06T22:44:16.720Z,10.50
2023-04-06T22:46:44.572Z,10.97
2023-04-06T22:49:12.560Z,10.57
2023-04-06T22:51:41.842Z,9.30
2023-04-06T22:54:09.675Z,9.53
2023-04-06T22:56:37.458Z,10.63
2023-04-06T22:59:05.244Z,11.13
2023-04-06T23:01:34.438Z,10.27
2023-04-06T23:04:02.437Z,10.43
2023-04-06T23:06:30.089Z,9.90
2023-04-06T23:08:57.770Z,10.30
2023-04-06T23:11:25.665Z,9.60
2023-04-06T23:13:55.439Z,9.67
2023-04-06T23:16:23.157Z,10.13
2023-04-06T23:18:52.295Z,10.27
2023-04-06T23:21:19.987Z,9.83
2023-04-06T23:23:47.738Z,9.27
2023-04-06T23:26:15.745Z,10.10
2023-04-06T23:28:43.374Z,10.47
2023-04-06T23:31:11.014Z,9.90
2023-04-06T23:33:38.670Z,9.53
2023-04-06T23:36:08.230Z,8.23
2023-04-06T23:38:36.233Z,9.00
2023-04-06T23:41:04.023Z,9.90
2023-04-06T23:43:31.641Z,10.47
2023-04-06T23:45:59.353Z,8.07
2023-04-06T23:48:27.128Z,10.30
2023-04-06T23:50:54.820Z,9.70
2023-04-06T23:53:23.968Z,8.73
2023-04-06T23:55:51.993Z,9.90
2023-04-06T23:58:20.314Z,8.97
